Time;durP1;ratioP1;P1;durP2;ratioP2;P2;SDS_P1;SDS_P2;PMS_P1;PMS_P2;Temp;Humidity;BMP_temperature;BMP_pressure;BME280_temperature;BME280_humidity;BME280_pressure;Samples;Min_cycle;Max_cycle;Signal;HPM_P1;HPM_P2
2022/08/11 00:01:54;;;;;;;4.57;1.38;;;;;;;17.05;48.05;100670.53;5052657;28;20393;-55
2022/08/11 00:04:25;;;;;;;2.53;1.60;;;;;;;17.07;48.17;100682.06;5052312;28;20087;-55
2022/08/11 00:06:52;;;;;;;5.80;1.50;;;;;;;16.99;48.53;100679.25;5052320;28;20043;-56
2022/08/11 00:09:20;;;;;;;7.63;1.40;;;;;;;16.92;48.64;100673.50;5052255;28;20499;-53
2022/08/11 00:11:53;;;;;;;5.97;1.42;;;;;;;16.92;48.84;100669.97;5052189;28;20145;-57
2022/08/11 00:14:24;;;;;;;4.88;1.60;;;;;;;17.03;48.60;100680.66;5052258;28;20423;-55
2022/08/11 00:17:08;;;;;;;5.82;1.33;;;;;;;17.13;48.26;100682.50;5052182;28;20453;-56
2022/08/11 00:19:43;;;;;;;4.35;1.73;;;;;;;17.02;48.88;100688.94;5052326;28;20029;-53
2022/08/11 00:22:10;;;;;;;6.78;1.50;;;;;;;17.01;48.98;100682.66;5052156;28;20025;-57
2022/08/11 00:24:38;;;;;;;4.00;1.60;;;;;;;16.94;49.35;100684.19;5051844;28;20422;-54
2022/08/11 00:27:05;;;;;;;3.63;1.48;;;;;;;16.90;49.74;100680.09;5051974;28;20146;-55
2022/08/11 00:29:31;;;;;;;6.13;1.50;;;;;;;16.83;49.87;100674.38;5051994;28;20100;-53
2022/08/11 00:32:00;;;;;;;3.90;1.40;;;;;;;16.90;49.68;100675.50;5051920;28;20035;-51
2022/08/11 00:34:32;;;;;;;5.13;1.50;;;;;;;16.89;49.84;100683.78;5051811;28;20046;-55
2022/08/11 00:37:09;;;;;;;2.95;1.15;;;;;;;16.86;50.22;100687.63;5052094;28;20120;-51
2022/08/11 00:39:51;;;;;;;6.20;1.55;;;;;;;16.82;50.25;100682.63;5051777;28;20029;-55
2022/08/11 00:42:23;;;;;;;3.33;1.38;;;;;;;16.75;50.55;100679.66;5051800;28;20078;-58
2022/08/11 00:45:10;;;;;;;3.20;1.30;;;;;;;16.75;50.60;100691.31;5051568;28;20477;-54
2022/08/11 00:48:00;;;;;;;4.05;1.50;;;;;;;16.73;50.76;100695.16;5050918;28;20127;-50
2022/08/11 00:50:36;;;;;;;3.53;1.52;;;;;;;16.69;50.98;100691.91;5051363;28;20067;-52
2022/08/11 00:53:11;;;;;;;3.33;1.33;;;;;;;16.60;51.43;100684.63;5051685;28;20036;-56
2022/08/11 00:56:02;;;;;;;4.47;1.65;;;;;;;16.64;51.26;100686.91;5050315;28;20033;-56
2022/08/11 00:58:51;;;;;;;2.92;1.40;;;;;;;16.60;51.42;100690.03;5051555;28;20037;-54
2022/08/11 01:01:27;;;;;;;2.70;1.30;;;;;;;16.35;51.76;100676.97;5051987;28;20036;-56
2022/08/11 01:04:07;;;;;;;;;;;;;;;16.73;50.00;100698.72;5051713;28;20033;-56
2022/08/11 01:06:33;;;;;;;2.55;1.50;;;;;;;16.45;51.79;100697.72;5051372;28;19913;-53
2022/08/11 01:09:23;;;;;;;4.85;1.60;;;;;;;16.43;52.04;100705.97;5051366;28;20033;-53
2022/08/11 01:12:19;;;;;;;4.38;1.50;;;;;;;16.45;52.05;100701.28;5051466;28;20057;-50
2022/08/11 01:15:06;;;;;;;3.55;1.60;;;;;;;16.41;52.34;100693.59;5051464;28;20043;-53
2022/08/11 01:17:56;;;;;;;2.75;1.60;;;;;;;16.38;52.57;100696.59;5051494;28;20024;-55
2022/08/11 01:20:58;;;;;;;3.72;1.70;;;;;;;16.34;52.61;100701.41;5051080;28;20025;-53
2022/08/11 01:23:39;;;;;;;4.97;1.75;;;;;;;16.27;53.17;100703.81;5051173;28;20037;-54
2022/08/11 01:26:33;;;;;;;4.63;1.55;;;;;;;16.25;53.34;100711.19;5051241;28;20033;-56
2022/08/11 01:29:32;;;;;;;5.07;1.80;;;;;;;16.27;53.14;100708.38;5051366;28;20087;-54
2022/08/11 01:32:16;;;;;;;3.40;1.75;;;;;;;16.25;53.44;100715.75;5050999;28;20021;-55
2022/08/11 01:34:47;;;;;;;5.05;1.90;;;;;;;16.14;54.03;100720.28;5051243;28;20029;-55
2022/08/11 01:37:50;;;;;;;3.35;2.00;;;;;;;16.18;53.84;100710.91;5051250;28;20129;-52
2022/08/11 01:40:35;;;;;;;2.72;1.58;;;;;;;16.10;54.06;100721.53;5051229;28;20036;-54
2022/08/11 01:46:52;;;;;;;3.40;1.60;;;;;;;16.17;54.00;100719.16;5051124;28;20064;-54
2022/08/11 01:49:30;;;;;;;3.55;1.88;;;;;;;16.12;54.39;100724.97;5051381;28;20501;-55
2022/08/11 01:52:22;;;;;;;4.63;1.75;;;;;;;16.11;54.35;100723.25;5050968;28;20029;-49
2022/08/11 01:55:06;;;;;;;5.70;1.85;;;;;;;16.14;54.50;100728.38;5051132;28;20025;-57
2022/08/11 01:58:04;;;;;;;2.47;1.48;;;;;;;16.14;54.55;100725.66;5052074;28;20048;-54
2022/08/11 02:00:34;;;;;;;3.97;1.85;;;;;;;16.02;55.00;100724.09;5055004;28;20025;-54
2022/08/11 02:03:05;;;;;;;3.83;1.40;;;;;;;16.04;54.99;100731.06;5054880;28;20047;-60
2022/08/11 02:05:42;;;;;;;2.17;1.38;;;;;;;16.06;55.11;100737.19;5053577;28;20033;-50
2022/08/11 02:08:23;;;;;;;3.72;1.50;;;;;;;16.05;55.24;100729.22;5054924;28;20119;-50
2022/08/11 02:14:29;;;;;;;3.38;1.35;;;;;;;16.11;55.31;100738.63;5054625;28;20041;-61
2022/08/11 02:17:14;;;;;;;2.45;1.17;;;;;;;16.11;55.36;100742.16;5054768;28;20037;-54
2022/08/11 02:26:04;;;;;;;2.70;1.05;;;;;;;16.08;55.57;100745.13;5054276;28;20028;-59
2022/08/11 02:29:04;;;;;;;1.67;1.30;;;;;;;16.16;55.40;100742.63;5054508;28;20033;-56
2022/08/11 02:34:43;;;;;;;2.65;1.48;;;;;;;16.24;55.68;100743.78;5054108;28;20487;-53
2022/08/11 02:37:26;;;;;;;3.28;1.40;;;;;;;16.25;55.76;100740.91;5054315;28;20025;-55
2022/08/11 02:40:15;;;;;;;1.23;1.10;;;;;;;16.23;55.44;100740.19;5054498;28;20104;-56
2022/08/11 02:42:43;;;;;;;1.90;1.38;;;;;;;16.27;55.74;100748.91;5053733;28;20040;-55
2022/08/11 02:45:33;;;;;;;1.13;1.00;;;;;;;16.37;55.54;100752.47;5053860;28;20037;-54
2022/08/11 02:51:12;;;;;;;2.50;1.27;;;;;;;16.46;55.59;100748.06;5054222;28;20044;-54
2022/08/11 02:53:48;;;;;;;2.17;1.17;;;;;;;16.43;55.47;100748.34;5053759;28;20401;-52
2022/08/11 02:56:44;;;;;;;2.97;1.23;;;;;;;16.54;55.42;100750.09;5053970;28;20033;-55
2022/08/11 03:02:21;;;;;;;2.50;1.10;;;;;;;16.58;55.46;100762.31;5053770;28;20041;-55
2022/08/11 03:05:10;;;;;;;4.07;1.52;;;;;;;16.56;55.38;100758.91;5053469;28;20069;-55
2022/08/11 03:07:38;;;;;;;3.05;1.40;;;;;;;16.60;55.19;100761.19;5053565;28;20033;-53
2022/08/11 03:10:22;;;;;;;3.75;1.40;;;;;;;16.78;55.41;100771.31;5052276;28;20510;-55
2022/08/11 03:16:45;;;;;;;3.30;1.83;;;;;;;16.97;54.62;100778.59;5053390;28;20472;-52
2022/08/11 03:19:28;;;;;;;4.47;1.60;;;;;;;16.94;54.43;100768.06;5053237;28;20082;-51
2022/08/11 03:22:00;;;;;;;4.22;1.90;;;;;;;17.07;53.87;100768.63;5053698;28;20112;-55
2022/08/11 03:24:35;;;;;;;9.40;2.10;;;;;;;17.15;53.84;100777.91;5053523;28;20061;-58
2022/08/11 03:27:12;;;;;;;3.72;1.98;;;;;;;17.26;53.69;100783.16;5053225;28;20037;-55
2022/08/11 03:29:53;;;;;;;3.03;1.70;;;;;;;17.28;53.64;100778.44;5052959;28;20029;-55
2022/08/11 03:32:27;;;;;;;9.70;1.88;;;;;;;17.38;53.39;100780.31;5053246;28;20385;-54
2022/08/11 03:34:56;;;;;;;5.95;1.70;;;;;;;17.36;53.41;100780.44;5053338;28;20032;-55
2022/08/11 03:37:56;;;;;;;3.58;1.70;;;;;;;17.54;53.02;100785.13;5053388;28;20029;-55
2022/08/11 03:43:42;;;;;;;3.17;1.83;;;;;;;17.75;52.96;100787.63;5053040;28;20110;-53
2022/08/11 03:46:31;;;;;;;4.60;2.25;;;;;;;17.82;52.76;100786.00;5052663;28;20033;-57
2022/08/11 03:49:27;;;;;;;2.35;1.77;;;;;;;18.34;51.72;100793.66;5053027;28;20106;-51
2022/08/11 03:52:12;;;;;;;5.20;2.10;;;;;;;19.63;49.02;100798.94;5053068;28;20473;-54
2022/08/11 03:54:50;;;;;;;5.43;1.65;;;;;;;21.25;44.35;100784.56;5052805;28;20691;-51
2022/08/11 03:57:53;;;;;;;2.92;1.80;;;;;;;23.12;40.29;100777.88;5052817;28;20036;-54
2022/08/11 04:00:53;;;;;;;2.13;1.77;;;;;;;24.66;38.11;100773.78;5052751;28;20082;-53
2022/08/11 04:03:34;;;;;;;5.03;1.70;;;;;;;26.03;34.11;100772.78;5052649;28;20048;-56
2022/08/11 04:06:27;;;;;;;3.20;1.70;;;;;;;26.89;33.12;100763.22;5052295;28;20044;-53
2022/08/11 04:09:11;;;;;;;4.50;1.92;;;;;;;27.61;31.23;100751.59;5052306;28;20040;-51
2022/08/11 04:11:56;;;;;;;3.25;1.90;;;;;;;28.24;29.87;100753.97;5052433;28;20056;-55
2022/08/11 04:18:14;;;;;;;4.85;2.13;;;;;;;29.89;28.20;100762.22;5051828;28;20486;-56
2022/08/11 04:21:05;;;;;;;6.80;2.03;;;;;;;30.82;26.73;100755.75;5051524;28;20052;-55
2022/08/11 04:24:04;;;;;;;4.80;2.00;;;;;;;31.63;26.54;100755.25;5051935;28;20086;-54
2022/08/11 04:26:48;;;;;;;5.80;1.85;;;;;;;32.18;24.19;100743.94;5051795;28;20511;-58
2022/08/11 04:29:30;;;;;;;3.17;1.73;;;;;;;32.83;24.09;100754.91;5051764;28;20047;-56
2022/08/11 04:32:23;;;;;;;3.00;1.52;;;;;;;33.49;23.83;100754.34;5051981;28;20036;-58
2022/08/11 04:35:16;;;;;;;4.47;1.67;;;;;;;34.16;22.52;100760.81;5051697;28;20041;-54
2022/08/11 04:38:14;;;;;;;3.15;1.80;;;;;;;34.86;21.36;100765.75;5051954;28;20037;-58
2022/08/11 04:41:29;;;;;;;2.92;1.70;;;;;;;35.56;21.48;100764.94;5051513;28;20396;-55
2022/08/11 04:44:12;;;;;;;4.55;2.08;;;;;;;35.91;20.84;100760.63;5051244;28;20040;-57
2022/08/11 04:47:08;;;;;;;4.63;1.70;;;;;;;36.38;20.17;100769.19;5051394;28;20079;-55
2022/08/11 05:02:25;;;;;;;3.85;1.70;;;;;;;38.80;16.29;100765.34;5051373;28;20033;-57
2022/08/11 05:08:28;;;;;;;2.75;1.85;;;;;;;39.94;16.23;100772.69;5051327;28;20507;-56
2022/08/11 05:11:43;;;;;;;4.38;1.67;;;;;;;40.71;16.08;100780.03;5051173;28;20055;-57
2022/08/11 05:37:04;;;;;;;2.30;2.08;;;;;;;45.30;11.74;100784.09;5057963;28;20381;-58
2022/08/11 05:56:51;;;;;;;5.75;2.30;;;;;;;48.24;9.75;100772.25;5057198;28;20040;-63
2022/08/11 05:59:18;;;;;;;2.20;1.75;;;;;;;48.11;8.46;100777.94;5044456;28;20106;-58
2022/08/11 06:01:46;;;;;;;4.72;1.80;;;;;;;48.56;8.23;100783.75;5037036;28;20041;-58
2022/08/11 06:04:21;;;;;;;4.03;1.90;;;;;;;49.16;8.18;100767.97;5037331;28;20045;-57
2022/08/11 06:07:10;;;;;;;3.63;1.92;;;;;;;49.62;7.79;100776.03;5038144;28;20450;-54
2022/08/11 06:09:49;;;;;;;3.05;1.45;;;;;;;50.04;8.35;100771.72;5037196;28;20037;-60
2022/08/11 06:12:19;;;;;;;2.97;1.70;;;;;;;50.09;7.15;100766.56;5044768;28;20045;-58
2022/08/11 06:14:45;;;;;;;1.92;1.52;;;;;;;49.85;7.58;100759.09;5056850;28;20079;-55
2022/08/11 06:17:12;;;;;;;3.17;1.77;;;;;;;49.77;7.43;100755.25;5056869;28;20112;-56
2022/08/11 06:19:40;;;;;;;2.90;1.92;;;;;;;49.96;7.83;100765.06;5044635;28;20473;-57
2022/08/11 06:22:10;;;;;;;1.85;1.40;;;;;;;50.33;7.14;100764.66;5037384;28;20033;-60
2022/08/11 06:24:40;;;;;;;3.80;1.58;;;;;;;50.65;7.01;100761.69;5037887;28;20105;-56
2022/08/11 06:27:07;;;;;;;3.65;1.50;;;;;;;50.83;6.74;100759.16;5037465;28;20099;-58
2022/08/11 06:29:40;;;;;;;1.95;1.55;;;;;;;51.14;6.91;100767.06;5036390;28;20029;-58
2022/08/11 06:32:11;;;;;;;3.00;1.50;;;;;;;51.20;6.79;100766.34;5039009;28;20075;-58
2022/08/11 06:35:03;;;;;;;2.53;1.60;;;;;;;51.40;6.87;100781.38;5056802;28;20053;-60
2022/08/11 06:37:48;;;;;;;3.58;1.58;;;;;;;51.45;6.84;100771.69;5056861;28;20100;-58
2022/08/11 06:40:35;;;;;;;;;;;;;;;53.81;7.09;100768.69;5038705;28;20037;-58
2022/08/11 06:43:20;;;;;;;2.22;1.50;;;;;;;52.61;6.39;100775.34;5055964;28;20015;-58
2022/08/11 06:46:04;;;;;;;6.72;2.00;;;;;;;53.04;5.77;100749.28;5034601;28;20038;-58
2022/08/11 06:48:35;;;;;;;2.05;1.85;;;;;;;53.27;5.11;100777.69;5033232;28;20105;-58
2022/08/11 06:51:13;;;;;;;1.98;1.88;;;;;;;53.21;4.96;100774.34;5033972;28;20419;-59
2022/08/11 06:53:44;;;;;;;3.40;1.98;;;;;;;53.13;5.35;100775.53;5040179;28;20028;-58
2022/08/11 07:02:06;;;;;;;4.00;2.00;;;;;;;54.35;5.08;100768.97;5045645;28;20040;-60
2022/08/11 07:04:43;;;;;;;3.05;2.25;;;;;;;54.50;4.58;100769.03;5036978;28;20036;-59
2022/08/11 07:16:57;;;;;;;2.58;2.47;;;;;;;54.41;4.57;100760.00;5032582;28;20079;-59
2022/08/11 07:30:46;;;;;;;2.95;2.50;;;;;;;55.25;4.06;100758.13;5044250;28;20523;-59
2022/08/11 07:33:18;;;;;;;2.75;2.55;;;;;;;54.49;4.17;100753.88;5043774;28;20045;-63
2022/08/11 07:35:54;;;;;;;4.95;2.65;;;;;;;55.25;4.62;100756.03;5032883;28;20347;-60
2022/08/11 07:38:44;;;;;;;3.63;2.58;;;;;;;55.74;4.30;100759.31;5032999;28;20041;-58
2022/08/11 07:41:12;;;;;;;3.35;2.55;;;;;;;56.02;4.05;100757.59;5040208;28;20056;-61
2022/08/11 07:43:39;;;;;;;4.28;2.97;;;;;;;55.48;4.07;100760.56;5042510;28;20032;-62
2022/08/11 07:54:20;;;;;;;3.47;1.90;;;;;;;46.99;8.64;100743.00;5041114;28;20025;-53
2022/08/11 07:56:46;;;;;;;3.15;1.83;;;;;;;47.61;8.42;100745.09;5051373;28;20150;-55
2022/08/11 08:18:33;;;;;;;2.13;0.95;;;;;;;40.06;13.31;100731.03;5049537;28;20032;-64
2022/08/11 08:21:10;;;;;;;2.80;1.30;;;;;;;37.21;15.83;100744.19;5051383;28;20108;-61
2022/08/11 08:23:38;;;;;;;1.55;1.10;;;;;;;34.82;18.16;100722.03;5042996;28;20539;-63
2022/08/11 08:26:57;;;;;;;3.38;1.40;;;;;;;33.56;19.48;100740.28;5033823;28;20038;-63
2022/08/11 08:30:46;;;;;;;1.75;1.00;;;;;;;32.34;21.26;100745.16;5030951;28;20038;-63
2022/08/11 08:31:42;;;;;;;1.60;1.10;;;;;;;31.42;22.64;100747.56;5050526;28;20059;-60
2022/08/11 08:34:09;;;;;;;3.33;1.20;;;;;;;30.51;23.79;100739.19;5050623;28;20075;-61
2022/08/11 08:36:36;;;;;;;3.45;1.48;;;;;;;30.18;24.60;100745.16;5035507;28;20037;-61
2022/08/11 08:39:01;;;;;;;3.25;1.10;;;;;;;29.64;25.13;100748.53;5037499;28;20496;-59
2022/08/11 08:41:28;;;;;;;3.13;1.25;;;;;;;29.29;25.91;100755.41;5047365;28;20037;-61
2022/08/11 08:44:01;;;;;;;3.22;1.10;;;;;;;29.16;25.04;100755.50;5042972;28;20147;-62
2022/08/11 08:46:35;;;;;;;4.07;1.20;;;;;;;28.57;25.21;100744.69;5041766;28;20401;-60
2022/08/11 08:49:03;;;;;;;2.85;1.17;;;;;;;27.96;26.21;100746.84;5034358;28;20029;-57
2022/08/11 08:51:34;;;;;;;1.88;1.20;;;;;;;27.63;26.33;100754.97;5030654;28;20032;-59
2022/08/11 08:54:03;;;;;;;5.22;1.15;;;;;;;27.46;26.39;100750.94;5030290;28;20080;-65
2022/08/11 08:56:32;;;;;;;2.17;1.20;;;;;;;27.25;26.65;100721.78;5041247;28;20036;-57
2022/08/11 08:59:00;;;;;;;2.30;1.50;;;;;;;27.37;26.65;100739.34;5050405;28;20056;-58
2022/08/11 09:01:29;;;;;;;1.75;1.23;;;;;;;27.45;26.51;100754.75;5049624;28;20083;-59
2022/08/11 09:03:55;;;;;;;2.78;1.60;;;;;;;27.44;27.23;100740.16;5038596;28;20532;-61
2022/08/11 09:06:21;;;;;;;2.70;1.42;;;;;;;27.47;26.86;100737.00;5047016;28;20124;-61
2022/08/11 09:08:47;;;;;;;5.47;1.83;;;;;;;27.81;26.84;100728.69;5036660;28;20457;-61
2022/08/11 09:13:58;;;;;;;4.00;1.40;;;;;;;28.39;26.48;100728.91;5030283;28;20033;-62
2022/08/11 09:16:24;;;;;;;2.38;1.35;;;;;;;28.00;26.90;100743.44;5030501;28;20041;-62
2022/08/11 09:18:51;;;;;;;2.03;1.67;;;;;;;27.62;27.63;100734.03;5030995;28;20461;-60
2022/08/11 09:21:22;;;;;;;2.63;1.65;;;;;;;27.51;27.41;100730.03;5038603;28;20044;-62
2022/08/11 09:29:31;;;;;;;1.63;1.38;;;;;;;27.86;26.64;100734.38;5034105;28;20075;-62
2022/08/11 09:31:58;;;;;;;2.95;1.48;;;;;;;27.67;26.69;100707.78;5032401;28;20060;-62
2022/08/11 09:34:27;;;;;;;3.50;1.30;;;;;;;27.78;26.42;100718.94;5030161;28;20029;-62
2022/08/11 09:45:12;;;;;;;1.92;1.33;;;;;;;27.50;26.82;100732.97;5049692;28;20036;-61
2022/08/11 09:47:39;;;;;;;3.75;1.60;;;;;;;27.37;27.07;100731.94;5046185;28;20037;-62
2022/08/11 09:50:07;;;;;;;1.60;1.45;;;;;;;27.10;27.10;100709.09;5048219;28;20033;-62
2022/08/11 09:52:40;;;;;;;3.45;1.40;;;;;;;27.21;27.29;100729.59;5030032;28;20034;-60
2022/08/11 09:55:09;;;;;;;3.42;1.58;;;;;;;27.14;27.41;100728.78;5043043;28;20033;-61
2022/08/11 10:00:36;;;;;;;1.52;1.42;;;;;;;27.27;26.76;100717.78;5029004;28;20030;-62
2022/08/11 10:03:08;;;;;;;3.13;1.40;;;;;;;27.30;26.46;100717.34;5030411;28;20026;-61
2022/08/11 10:08:25;;;;;;;1.33;1.23;;;;;;;27.22;26.79;100720.31;5032775;28;20418;-60
2022/08/11 10:10:50;;;;;;;3.40;1.55;;;;;;;27.25;26.64;100708.03;5045752;28;20083;-62
2022/08/11 10:13:24;;;;;;;11.57;2.53;;;;;;;27.48;26.56;100713.06;5044613;28;20048;-65
2022/08/11 10:15:55;;;;;;;4.10;1.83;;;;;;;27.57;26.18;100706.31;5030498;28;20026;-61
2022/08/11 10:18:41;;;;;;;1.50;1.40;;;;;;;27.51;26.16;100719.03;5030883;28;20091;-61
2022/08/11 10:26:48;;;;;;;2.28;1.42;;;;;;;27.48;25.88;100713.06;5035714;28;20034;-61
2022/08/11 10:27:17;;;;;;;2.97;1.55;;;;;;;27.23;25.51;100700.84;5034908;28;20077;-62
2022/08/11 10:35:16;;;;;;;3.50;1.52;;;;;;;27.47;25.58;100700.38;5034177;28;20039;-61
2022/08/11 10:37:44;;;;;;;2.50;1.70;;;;;;;27.75;25.18;100708.38;5034889;28;20385;-62
2022/08/11 10:40:14;;;;;;;3.03;1.33;;;;;;;27.88;24.34;100714.91;5033843;28;20037;-62
2022/08/11 10:48:11;;;;;;;3.55;1.42;;;;;;;27.71;24.56;100695.28;5033400;28;20041;-61
2022/08/11 10:58:55;;;;;;;4.15;1.55;;;;;;;28.09;24.74;100686.25;5033668;28;20029;-62
2022/08/11 11:01:28;;;;;;;1.80;1.50;;;;;;;28.25;24.40;100679.41;5033107;28;20029;-62
2022/08/11 11:04:00;;;;;;;3.33;1.42;;;;;;;28.32;24.36;100680.19;5049705;28;20052;-62
2022/08/11 11:06:29;;;;;;;1.30;1.20;;;;;;;28.18;24.25;100660.16;5053427;28;20132;-61
2022/08/11 11:09:10;;;;;;;3.65;1.98;;;;;;;28.18;24.12;100667.59;5042332;28;20060;-62
2022/08/11 11:20:09;;;;;;;2.55;1.23;;;;;;;27.17;24.69;100667.88;5032937;28;20034;-66
2022/08/11 11:22:37;;;;;;;2.40;1.67;;;;;;;27.18;25.06;100669.56;5034236;28;20034;-62
2022/08/11 11:26:05;;;;;;;2.08;1.58;;;;;;;27.39;24.71;100664.88;5040462;28;20031;-63
2022/08/11 11:29:04;;;;;;;2.15;1.70;;;;;;;27.56;24.71;100666.13;5038777;28;20054;-62
2022/08/11 11:31:55;;;;;;;4.13;1.63;;;;;;;27.54;24.65;100662.75;5031759;28;20036;-64
2022/08/11 11:34:26;;;;;;;2.38;1.40;;;;;;;27.26;24.63;100652.88;5041201;28;20025;-62
2022/08/11 11:36:56;;;;;;;5.63;1.52;;;;;;;27.13;25.24;100656.47;5046043;28;20060;-60
2022/08/11 11:39:24;;;;;;;3.10;1.50;;;;;;;27.12;25.44;100654.75;5049664;28;20473;-60
2022/08/11 11:41:53;;;;;;;2.75;1.70;;;;;;;27.22;25.16;100644.19;5042182;28;20477;-61
2022/08/11 11:44:21;;;;;;;3.78;1.60;;;;;;;27.26;25.24;100649.25;5038084;28;20025;-62
2022/08/11 11:46:48;;;;;;;2.15;1.48;;;;;;;27.33;24.93;100656.44;5037125;28;20050;-61
2022/08/11 11:49:20;;;;;;;5.47;1.42;;;;;;;27.25;25.27;100651.19;5040121;28;20068;-61
2022/08/11 11:51:47;;;;;;;1.67;1.20;;;;;;;27.25;25.78;100644.81;5035728;28;20061;-63
2022/08/11 11:54:19;;;;;;;4.32;1.80;;;;;;;27.22;25.44;100657.94;5033079;28;20160;-61
2022/08/11 11:56:45;;;;;;;4.25;1.38;;;;;;;27.06;25.45;100647.38;5044683;28;20024;-61
2022/08/11 12:01:56;;;;;;;1.70;1.33;;;;;;;27.08;25.48;100646.13;5031350;28;20025;-60
2022/08/11 12:04:22;;;;;;;2.42;1.42;;;;;;;26.94;25.12;100630.69;5039652;28;20489;-60
2022/08/11 12:06:49;;;;;;;2.35;1.50;;;;;;;26.72;25.80;100641.88;5051374;28;20037;-60
2022/08/11 12:09:17;;;;;;;5.82;3.75;;;;;;;26.63;26.03;100634.91;5050140;28;20021;-60
2022/08/11 12:14:28;;;;;;;3.97;2.22;;;;;;;26.73;25.67;100646.31;5051727;28;20112;-60
2022/08/11 12:16:56;;;;;;;13.30;5.15;;;;;;;26.62;26.32;100645.03;5036717;28;20045;-60
2022/08/11 12:19:27;;;;;;;3.90;1.70;;;;;;;26.61;26.38;100639.78;5031811;28;20120;-61
2022/08/11 12:27:26;;;;;;;4.95;2.25;;;;;;;26.78;25.94;100642.94;5050561;28;20041;-61
2022/08/11 12:29:56;;;;;;;5.40;3.00;;;;;;;26.76;25.92;100631.31;5050825;28;20028;-59
2022/08/11 12:32:26;;;;;;;2.47;1.60;;;;;;;26.75;26.11;100638.69;5051528;28;20037;-60
2022/08/11 12:34:52;;;;;;;2.53;2.00;;;;;;;26.78;25.61;100634.69;5033938;28;20087;-60
2022/08/11 12:37:23;;;;;;;2.28;1.83;;;;;;;26.72;25.80;100635.53;5029958;28;20037;-61
2022/08/11 12:45:26;;;;;;;;;;;;;;;26.81;25.56;100634.25;5041393;28;20404;-62
2022/08/11 12:53:32;;;;;;;3.97;1.90;;;;;;;26.27;26.09;100638.88;5049378;28;20527;-59
2022/08/11 12:58:50;;;;;;;3.40;1.77;;;;;;;25.94;26.23;100629.50;5035584;28;20477;-58
2022/08/11 13:06:45;;;;;;;3.15;1.65;;;;;;;26.22;26.23;100623.03;5041689;28;20103;-59
2022/08/11 13:09:11;;;;;;;3.78;1.60;;;;;;;26.26;25.75;100623.44;5032231;28;20049;-61
2022/08/11 13:14:37;;;;;;;3.17;1.75;;;;;;;26.39;25.91;100619.88;5048613;28;20057;-60
2022/08/11 13:17:21;;;;;;;4.13;1.92;;;;;;;26.40;26.16;100619.69;5034442;28;20040;-59
2022/08/11 13:19:48;;;;;;;2.70;1.60;;;;;;;26.41;26.41;100626.88;5036413;28;20041;-62
2022/08/11 13:22:18;;;;;;;2.75;1.65;;;;;;;26.53;26.12;100620.75;5044123;28;20120;-60
2022/08/11 13:24:45;;;;;;;4.93;1.48;;;;;;;26.43;26.50;100613.78;5029369;28;20120;-59
2022/08/11 13:27:13;;;;;;;2.90;1.67;;;;;;;26.39;27.03;100607.00;5047249;28;20044;-60
2022/08/11 13:29:41;;;;;;;3.45;1.70;;;;;;;26.41;27.19;100618.63;5049518;28;20492;-60
2022/08/11 13:32:07;;;;;;;3.00;1.52;;;;;;;26.34;26.64;100618.63;5050278;28;20126;-63
2022/08/11 13:34:40;;;;;;;2.72;1.70;;;;;;;26.33;27.09;100618.84;5038476;28;20036;-61
2022/08/11 13:37:07;;;;;;;3.42;2.03;;;;;;;26.33;26.69;100613.34;5039893;28;20512;-62
2022/08/11 13:39:35;;;;;;;5.13;1.83;;;;;;;26.36;26.67;100613.75;5049763;28;20129;-61
2022/08/11 13:42:03;;;;;;;2.53;1.70;;;;;;;26.31;27.12;100613.53;5046340;28;20078;-60
2022/08/11 13:44:32;;;;;;;3.03;2.00;;;;;;;26.37;26.53;100615.44;5037451;28;20025;-61
2022/08/11 13:47:10;;;;;;;4.78;1.80;;;;;;;26.37;26.33;100595.41;5049028;28;20443;-61
2022/08/11 13:49:39;;;;;;;2.42;1.58;;;;;;;26.39;26.78;100607.00;5043825;28;20123;-61
2022/08/11 13:52:06;;;;;;;2.55;1.80;;;;;;;26.35;26.63;100605.75;5049895;28;20025;-61
2022/08/11 13:54:34;;;;;;;3.00;2.00;;;;;;;26.38;26.76;100599.84;5049721;28;20021;-60
2022/08/11 13:57:04;;;;;;;4.72;2.10;;;;;;;26.43;26.34;100608.28;5040940;28;20504;-60
2022/08/11 13:59:30;;;;;;;6.07;2.33;;;;;;;26.42;26.70;100598.34;5034305;28;20033;-60
2022/08/11 14:02:02;;;;;;;2.15;1.73;;;;;;;26.26;26.84;100601.50;5045511;28;20489;-61
2022/08/11 14:04:42;;;;;;;3.72;1.70;;;;;;;26.23;26.21;100587.13;5042109;28;20116;-61
2022/08/11 14:07:10;;;;;;;1.65;1.55;;;;;;;26.19;26.69;100596.03;5040174;28;20142;-62
2022/08/11 14:09:40;;;;;;;5.22;1.80;;;;;;;26.11;26.92;100604.41;5053890;28;20045;-61
2022/08/11 14:15:00;;;;;;;3.35;1.75;;;;;;;25.83;27.02;100569.72;5032885;28;20080;-61
2022/08/11 14:17:30;;;;;;;2.33;1.65;;;;;;;25.81;27.76;100583.66;5051177;28;20477;-60
2022/08/11 14:19:58;;;;;;;1.95;1.70;;;;;;;25.91;27.27;100597.81;5053223;28;20028;-60
2022/08/11 14:22:24;;;;;;;2.88;1.67;;;;;;;25.80;27.84;100595.66;5053593;28;20033;-60
2022/08/11 14:24:50;;;;;;;2.97;1.80;;;;;;;25.70;27.68;100595.22;5053727;28;20473;-60
2022/08/11 14:27:17;;;;;;;1.50;1.40;;;;;;;25.69;27.95;100588.03;5048459;28;20094;-59
2022/08/11 14:29:45;;;;;;;2.10;1.88;;;;;;;25.63;27.83;100593.28;5053719;28;20040;-61
2022/08/11 14:32:12;;;;;;;4.13;1.70;;;;;;;25.48;28.31;100587.09;5047967;28;20324;-61
2022/08/11 14:34:41;;;;;;;2.88;1.58;;;;;;;25.46;27.96;100586.44;5046150;28;20130;-60
2022/08/11 14:37:14;;;;;;;3.22;1.40;;;;;;;25.44;28.19;100581.19;5053076;28;20459;-60
2022/08/11 14:39:45;;;;;;;3.47;1.55;;;;;;;25.47;28.22;100566.22;5042252;28;20044;-60
2022/08/11 14:48:08;;;;;;;3.28;1.63;;;;;;;25.54;28.00;100571.75;5030603;28;20437;-60
2022/08/11 14:50:35;;;;;;;1.75;1.50;;;;;;;25.45;29.21;100569.16;5036718;28;20029;-60
2022/08/11 14:53:03;;;;;;;2.83;1.80;;;;;;;25.44;28.85;100574.84;5043694;28;20450;-62
2022/08/11 14:58:22;;;;;;;2.55;1.98;;;;;;;25.48;28.95;100565.19;5032225;28;20025;-59
2022/08/11 15:00:52;;;;;;;5.65;1.83;;;;;;;25.49;28.96;100561.38;5046112;28;20037;-58
2022/08/11 15:03:19;;;;;;;6.32;1.92;;;;;;;25.43;29.04;100564.91;5051786;28;20036;-57
2022/08/11 15:05:49;;;;;;;5.70;2.47;;;;;;;25.45;28.78;100562.81;5046054;28;20111;-57
2022/08/11 15:08:16;;;;;;;2.88;2.10;;;;;;;25.37;29.05;100572.91;5052904;28;20064;-55
2022/08/11 15:10:44;;;;;;;3.45;1.95;;;;;;;25.36;28.88;100548.44;5049022;28;20048;-60
2022/08/11 15:13:10;;;;;;;2.50;2.10;;;;;;;25.19;28.97;100536.97;5048552;28;20067;-60
2022/08/11 15:18:25;;;;;;;4.97;2.05;;;;;;;25.21;29.04;100567.75;5035600;28;20482;-60
2022/08/11 15:37:40;;;;;;;3.35;1.70;;;;;;;24.88;29.35;100573.91;5031780;28;20035;-59
2022/08/11 15:46:00;;;;;;;2.88;1.95;;;;;;;24.84;30.36;100567.09;5052584;28;20076;-60
2022/08/11 15:48:34;;;;;;;2.97;1.90;;;;;;;24.72;30.26;100564.06;5041127;28;20442;-61
2022/08/11 15:51:12;;;;;;;4.20;2.30;;;;;;;24.78;30.59;100566.88;5032157;28;20453;-60
2022/08/11 15:53:42;;;;;;;4.88;2.10;;;;;;;24.65;30.98;100564.00;5035238;28;20024;-61
2022/08/11 15:56:10;;;;;;;3.10;1.92;;;;;;;24.57;31.74;100561.41;5052464;28;20044;-59
2022/08/11 16:04:15;;;;;;;3.22;2.28;;;;;;;24.46;30.79;100565.53;5032355;28;20087;-59
2022/08/11 16:06:56;;;;;;;4.78;1.90;;;;;;;24.46;31.30;100571.88;5035926;28;20477;-63
2022/08/11 16:09:45;;;;;;;4.03;2.05;;;;;;;24.43;31.12;100563.19;5052421;28;20068;-59
2022/08/11 16:12:14;;;;;;;4.38;2.20;;;;;;;24.18;31.80;100547.19;5050428;28;20515;-60
2022/08/11 16:17:34;;;;;;;3.95;2.30;;;;;;;24.57;30.58;100572.34;5031600;28;20036;-61
2022/08/11 16:20:01;;;;;;;5.15;2.10;;;;;;;24.41;30.66;100563.41;5046270;28;20028;-60
2022/08/11 16:22:38;;;;;;;4.38;2.30;;;;;;;24.26;31.17;100548.94;5051999;28;20040;-60
2022/08/11 16:25:09;;;;;;;3.45;1.95;;;;;;;24.44;30.87;100573.09;5043254;28;20056;-60
2022/08/11 16:27:39;;;;;;;3.97;2.13;;;;;;;24.28;31.05;100568.75;5031008;28;20052;-60
2022/08/11 16:30:06;;;;;;;7.15;2.10;;;;;;;24.39;30.57;100565.50;5031455;28;20025;-60
2022/08/11 16:32:35;;;;;;;2.47;1.90;;;;;;;24.32;31.08;100567.31;5042667;28;20044;-59
2022/08/11 16:40:36;;;;;;;3.13;2.08;;;;;;;24.15;31.17;100566.72;5038386;28;20534;-61
2022/08/11 16:48:38;;;;;;;4.28;2.25;;;;;;;23.92;32.05;100576.81;5034226;28;20025;-61
2022/08/11 16:51:05;;;;;;;4.93;2.10;;;;;;;23.82;32.05;100567.22;5042074;28;20040;-62